Time;durP1;ratioP1;P1;durP2;ratioP2;P2;SDS_P1;SDS_P2;PMS_P1;PMS_P2;Temp;Humidity;BMP_temperature;BMP_pressure;BME280_temperature;BME280_humidity;BME280_pressure;Samples;Min_cycle;Max_cycle;Signal;HPM_P1;HPM_P2
2022/03/26 00:00:42;;;;;;;;;;;8.90;99.90;;;;;;5095411;28;19954;-88
2022/03/26 00:03:09;;;;;;;;;;;8.90;99.90;;;;;;5096003;28;20527;-89
2022/03/26 00:05:37;;;;;;;;;;;8.90;99.90;;;;;;5095798;28;19931;-89
2022/03/26 00:08:04;;;;;;;;;;;7.40;99.90;;;;;;5095264;28;19931;-88
2022/03/26 00:10:31;;;;;;;;;;;8.80;99.90;;;;;;5095742;28;20439;-88
2022/03/26 00:12:58;;;;;;;;;;;8.90;99.90;;;;;;5096154;28;19928;-89
2022/03/26 00:15:25;;;;;;;;;;;8.90;99.90;;;;;;5095429;28;19924;-87
2022/03/26 00:17:52;;;;;;;;;;;8.90;99.90;;;;;;5094627;28;19966;-88
2022/03/26 00:20:18;;;;;;;;;;;9.00;99.90;;;;;;5095461;28;20416;-88
2022/03/26 00:22:47;;;;;;;;;;;8.50;99.90;;;;;;5095357;28;19970;-89
2022/03/26 00:25:15;;;;;;;;;;;8.90;99.90;;;;;;5095287;28;19924;-90
2022/03/26 00:27:42;;;;;;;;;;;8.90;99.90;;;;;;5095294;28;19930;-90
2022/03/26 00:30:10;;;;;;;;;;;8.90;99.90;;;;;;5095889;28;19931;-89
2022/03/26 00:32:37;;;;;;;;;;;8.80;99.90;;;;;;5104870;28;19945;-86
2022/03/26 00:35:08;;;;;;;;;;;9.00;99.90;;;;;;5106835;28;19924;-85
2022/03/26 00:37:35;;;;;;;;;;;8.90;99.90;;;;;;5107377;28;20028;-85
2022/03/26 00:40:03;;;;;;;;;;;8.60;99.90;;;;;;5104784;28;20274;-87
2022/03/26 00:42:30;;;;;;;;;;;8.60;99.90;;;;;;5098071;28;19981;-89
2022/03/26 00:44:57;;;;;;;;;;;8.20;99.90;;;;;;5095924;28;19981;-89
2022/03/26 00:47:25;;;;;;;;;;;8.90;99.90;;;;;;5094982;28;19924;-89
2022/03/26 00:49:54;;;;;;;;;;;8.40;99.90;;;;;;5094692;28;19924;-89
2022/03/26 00:52:23;;;;;;;;;;;7.70;99.90;;;;;;5095483;28;19923;-90
2022/03/26 00:54:50;;;;;;;;;;;8.30;99.90;;;;;;5094941;28;19977;-89
2022/03/26 00:57:18;;;;;;;;;;;8.30;99.90;;;;;;5094596;28;19924;-86
2022/03/26 00:59:45;;;;;;;;;;;8.30;99.90;;;;;;5094682;28;20289;-88
2022/03/26 01:02:12;;;;;;;;;;;8.20;99.90;;;;;;5095083;28;19932;-89
2022/03/26 01:04:39;;;;;;;;;;;8.20;99.90;;;;;;5095452;28;19923;-89
2022/03/26 01:07:08;;;;;;;;;;;8.40;99.90;;;;;;5094925;28;20404;-89
2022/03/26 01:09:35;;;;;;;;;;;8.20;99.90;;;;;;5094729;28;20370;-89
2022/03/26 01:12:05;;;;;;;;;;;8.20;99.90;;;;;;5095297;28;20000;-87
2022/03/26 01:14:34;;;;;;;;;;;8.20;99.90;;;;;;5094703;28;19924;-89
2022/03/26 01:17:01;;;;;;;;;;;8.30;99.90;;;;;;5094274;28;19935;-89
2022/03/26 01:19:28;;;;;;;;;;;8.40;99.90;;;;;;5094845;28;20364;-89
2022/03/26 01:21:55;;;;;;;;;;;8.40;99.90;;;;;;5094221;28;19924;-89
2022/03/26 01:24:21;;;;;;;;;;;8.40;99.90;;;;;;5094222;28;19924;-89
2022/03/26 01:26:48;;;;;;;;;;;8.40;99.90;;;;;;5094484;28;19939;-89
2022/03/26 01:29:15;;;;;;;;;;;8.30;99.90;;;;;;5094734;28;19927;-86
2022/03/26 01:31:43;;;;;;;;;;;8.30;99.90;;;;;;5098405;28;19928;-88
2022/03/26 01:34:10;;;;;;;;;;;7.70;99.90;;;;;;5098617;28;20018;-86
2022/03/26 01:36:37;;;;;;;;;;;8.20;99.90;;;;;;5098852;28;19977;-88
2022/03/26 01:39:03;;;;;;;;;;;8.20;99.90;;;;;;5098376;28;19924;-87
2022/03/26 01:41:30;;;;;;;;;;;8.30;99.90;;;;;;5097996;28;19978;-87
2022/03/26 01:43:57;;;;;;;;;;;8.00;99.90;;;;;;5097940;28;19924;-88
2022/03/26 01:46:24;;;;;;;;;;;8.00;99.90;;;;;;5098381;28;19962;-89
2022/03/26 01:48:54;;;;;;;;;;;8.00;99.90;;;;;;5097820;28;19924;-88
2022/03/26 01:51:20;;;;;;;;;;;7.90;99.90;;;;;;5098325;28;19924;-89
2022/03/26 01:53:48;;;;;;;;;;;7.90;99.90;;;;;;5098171;28;19924;-88
2022/03/26 01:56:16;;;;;;;;;;;7.80;99.90;;;;;;5097645;28;19924;-89
2022/03/26 01:58:44;;;;;;;;;;;7.80;99.90;;;;;;5097972;28;20374;-87
2022/03/26 02:01:11;;;;;;;;;;;7.80;99.90;;;;;;5117225;28;19989;-88
2022/03/26 02:03:37;;;;;;;;;;;7.90;99.90;;;;;;5118040;28;19981;-90
2022/03/26 02:06:06;;;;;;;;;;;7.80;99.90;;;;;;5118612;28;19928;-90
2022/03/26 02:08:32;;;;;;;;;;;8.20;99.90;;;;;;5118013;28;19965;-89
2022/03/26 02:10:59;;;;;;;;;;;7.70;99.90;;;;;;5118107;28;19957;-89
2022/03/26 02:13:26;;;;;;;;;;;7.70;99.90;;;;;;5118094;28;20285;-88
2022/03/26 02:15:53;;;;;;;;;;;7.60;99.90;;;;;;5117718;28;19975;-90
2022/03/26 02:18:20;;;;;;;;;;;7.60;99.90;;;;;;5117920;28;19923;-88
2022/03/26 02:20:48;;;;;;;;;;;7.60;99.90;;;;;;5117462;28;20442;-90
2022/03/26 02:23:15;;;;;;;;;;;7.60;99.90;;;;;;5118086;28;19924;-89
2022/03/26 02:25:42;;;;;;;;;;;7.50;99.90;;;;;;5117686;28;19984;-88
2022/03/26 02:28:09;;;;;;;;;;;7.50;99.90;;;;;;5117673;28;19932;-89
2022/03/26 02:30:36;;;;;;;;;;;7.60;99.90;;;;;;5117856;28;20332;-89
2022/03/26 02:33:03;;;;;;;;;;;7.60;99.90;;;;;;5117785;28;20389;-88
2022/03/26 02:35:30;;;;;;;;;;;7.60;99.90;;;;;;5117791;28;19924;-88
2022/03/26 02:38:00;;;;;;;;;;;7.60;99.90;;;;;;5117865;28;19924;-89
2022/03/26 02:40:27;;;;;;;;;;;8.10;99.90;;;;;;5117989;28;19924;-87
2022/03/26 02:42:54;;;;;;;;;;;7.40;99.90;;;;;;5127671;28;19928;-88
2022/03/26 02:45:21;;;;;;;;;;;7.30;99.90;;;;;;5128763;28;19923;-87
2022/03/26 02:47:50;;;;;;;;;;;7.20;99.90;;;;;;5128608;28;19938;-87
2022/03/26 02:50:17;;;;;;;;;;;7.30;99.90;;;;;;5123997;28;20290;-89
2022/03/26 02:52:48;;;;;;;;;;;7.30;99.90;;;;;;5118363;28;19970;-89
2022/03/26 02:55:16;;;;;;;;;;;7.30;99.90;;;;;;5117461;27;19923;-88
2022/03/26 02:57:46;;;;;;;;;;;7.30;99.90;;;;;;5117559;28;19924;-90
2022/03/26 03:00:13;;;;;;;;;;;7.30;99.90;;;;;;5105738;27;19924;-89
2022/03/26 03:02:40;;;;;;;;;;;5.20;99.90;;;;;;5096198;28;20328;-89
2022/03/26 03:05:07;;;;;;;;;;;7.20;99.90;;;;;;5096456;28;19924;-89
2022/03/26 03:07:36;;;;;;;;;;;7.20;99.90;;;;;;5097015;28;19978;-89
2022/03/26 03:10:03;;;;;;;;;;;7.20;99.90;;;;;;5096484;28;19924;-90
2022/03/26 03:12:31;;;;;;;;;;;7.20;99.90;;;;;;5096083;28;19924;-89
2022/03/26 03:14:58;;;;;;;;;;;7.10;99.90;;;;;;5096224;28;19928;-90
2022/03/26 03:17:25;;;;;;;;;;;7.30;99.90;;;;;;5096517;28;19925;-89
2022/03/26 03:19:52;;;;;;;;;;;7.10;99.90;;;;;;5096449;28;19936;-89
2022/03/26 03:22:18;;;;;;;;;;;7.10;99.90;;;;;;5096506;28;19928;-89
2022/03/26 03:24:45;;;;;;;;;;;7.00;99.90;;;;;;5101300;28;19924;-90
2022/03/26 03:27:12;;;;;;;;;;;6.90;99.90;;;;;;5097359;28;19924;-90
2022/03/26 03:29:40;;;;;;;;;;;6.90;99.90;;;;;;5095728;28;20278;-90
2022/03/26 03:32:07;;;;;;;;;;;6.90;99.90;;;;;;5096167;28;19924;-88
2022/03/26 03:34:34;;;;;;;;;;;6.80;99.90;;;;;;5107007;28;19924;-90
2022/03/26 03:37:01;;;;;;;;;;;6.80;99.90;;;;;;5116312;28;19957;-89
2022/03/26 03:39:28;;;;;;;;;;;7.10;99.90;;;;;;5115350;28;20435;-89
2022/03/26 03:41:55;;;;;;;;;;;6.80;99.90;;;;;;5114637;28;19945;-89
2022/03/26 03:44:22;;;;;;;;;;;6.80;99.90;;;;;;5095960;28;19924;-87
2022/03/26 03:46:50;;;;;;;;;;;6.80;99.90;;;;;;5095096;28;20129;-88
2022/03/26 03:49:17;;;;;;;;;;;6.70;99.90;;;;;;5095440;28;20381;-89
2022/03/26 03:51:44;;;;;;;;;;;7.00;99.90;;;;;;5095649;28;19977;-89
2022/03/26 03:54:11;;;;;;;;;;;7.00;99.90;;;;;;5094353;28;20305;-89
2022/03/26 03:56:38;;;;;;;;;;;7.50;99.90;;;;;;5095224;28;20316;-90
2022/03/26 03:59:05;;;;;;;;;;;7.00;99.90;;;;;;5097291;28;20289;-87
2022/03/26 04:01:33;;;;;;;;;;;7.00;99.90;;;;;;5115449;28;19969;-88
2022/03/26 04:04:01;;;;;;;;;;;6.90;99.90;;;;;;5115340;27;19986;-88
2022/03/26 04:06:28;;;;;;;;;;;6.90;99.90;;;;;;5115560;28;19930;-89
2022/03/26 04:08:55;;;;;;;;;;;6.90;99.90;;;;;;5115577;27;19924;-90
2022/03/26 04:11:22;;;;;;;;;;;6.90;99.90;;;;;;5115358;28;20262;-89
2022/03/26 04:13:52;;;;;;;;;;;6.80;99.90;;;;;;5114890;28;19990;-90
2022/03/26 04:16:19;;;;;;;;;;;6.70;99.90;;;;;;5115571;28;19958;-90
2022/03/26 04:18:48;;;;;;;;;;;6.20;99.90;;;;;;5115500;28;19924;-89
2022/03/26 04:21:16;;;;;;;;;;;6.70;99.90;;;;;;5113770;28;19965;-88
2022/03/26 04:23:46;;;;;;;;;;;6.60;99.90;;;;;;5115234;28;19968;-89
2022/03/26 04:26:13;;;;;;;;;;;6.60;99.90;;;;;;5114704;28;19930;-90
2022/03/26 04:28:39;;;;;;;;;;;6.50;99.90;;;;;;5115036;28;19924;-88
2022/03/26 04:31:08;;;;;;;;;;;6.50;99.90;;;;;;5114775;28;19963;-89
2022/03/26 04:33:35;;;;;;;;;;;6.40;99.90;;;;;;5114842;28;20259;-87
2022/03/26 04:36:02;;;;;;;;;;;6.40;99.90;;;;;;5115312;28;19923;-88
2022/03/26 04:38:32;;;;;;;;;;;6.30;99.90;;;;;;5114654;28;19924;-89
2022/03/26 04:40:59;;;;;;;;;;;6.30;99.90;;;;;;5114979;28;20289;-89
2022/03/26 04:43:26;;;;;;;;;;;6.30;99.90;;;;;;5114832;28;19928;-88
2022/03/26 04:45:52;;;;;;;;;;;6.50;99.90;;;;;;5114765;28;19924;-89
2022/03/26 04:48:19;;;;;;;;;;;6.20;99.90;;;;;;5114684;28;19974;-88
2022/03/26 04:50:46;;;;;;;;;;;6.30;99.90;;;;;;5114594;28;20312;-89
2022/03/26 04:53:13;;;;;;;;;;;6.20;99.90;;;;;;5116111;28;19938;-87
2022/03/26 04:55:42;;;;;;;;;;;6.60;99.90;;;;;;5124165;28;20014;-87
2022/03/26 04:58:09;;;;;;;;;;;6.20;99.90;;;;;;5125237;28;19923;-86
2022/03/26 05:00:36;;;;;;;;;;;6.20;99.90;;;;;;5125018;28;19923;-88
2022/03/26 05:03:03;;;;;;;;;;;6.30;99.90;;;;;;5118681;28;20305;-89
2022/03/26 05:05:30;;;;;;;;;;;6.40;99.90;;;;;;5115209;28;20285;-89
2022/03/26 05:07:59;;;;;;;;;;;6.50;99.90;;;;;;5115186;28;19947;-88
2022/03/26 05:10:28;;;;;;;;;;;6.60;99.90;;;;;;5114146;28;19946;-88
2022/03/26 05:12:57;;;;;;;;;;;6.80;99.90;;;;;;5114779;28;20289;-88
2022/03/26 05:15:26;;;;;;;;;;;6.60;99.90;;;;;;5114382;28;20440;-89
2022/03/26 05:17:54;;;;;;;;;;;6.40;99.90;;;;;;5114753;28;19924;-89
2022/03/26 05:20:21;;;;;;;;;;;6.30;99.90;;;;;;5114203;28;20430;-88
2022/03/26 05:22:49;;;;;;;;;;;5.40;99.90;;;;;;5114070;28;19924;-88
2022/03/26 05:25:16;;;;;;;;;;;5.20;99.90;;;;;;5114036;28;19971;-89
2022/03/26 05:27:44;;;;;;;;;;;6.20;99.90;;;;;;5114248;28;19924;-89
2022/03/26 05:30:13;;;;;;;;;;;6.20;99.90;;;;;;5113808;28;20444;-88
2022/03/26 05:32:40;;;;;;;;;;;6.20;99.90;;;;;;5114071;28;19930;-88
2022/03/26 05:35:11;;;;;;;;;;;6.10;99.90;;;;;;5113846;28;19935;-88
2022/03/26 05:37:38;;;;;;;;;;;6.10;99.90;;;;;;5114379;28;19928;-88
2022/03/26 05:40:07;;;;;;;;;;;6.10;99.90;;;;;;5113631;28;19923;-88
2022/03/26 05:42:35;;;;;;;;;;;6.10;99.90;;;;;;5114290;28;19928;-89
2022/03/26 05:45:01;;;;;;;;;;;6.30;99.90;;;;;;5113907;28;20433;-88
2022/03/26 05:47:30;;;;;;;;;;;6.20;99.90;;;;;;5114147;28;19927;-89
2022/03/26 05:49:57;;;;;;;;;;;6.20;99.90;;;;;;5113978;28;20340;-88
2022/03/26 05:52:24;;;;;;;;;;;6.30;99.90;;;;;;5114366;28;19924;-89
2022/03/26 05:54:51;;;;;;;;;;;6.20;99.90;;;;;;5114639;28;19927;-86
2022/03/26 05:57:18;;;;;;;;;;;6.30;99.90;;;;;;5114156;28;20323;-89
2022/03/26 05:59:45;;;;;;;;;;;6.70;99.90;;;;;;5113819;28;19944;-88
2022/03/26 06:02:13;;;;;;;;;;;6.30;99.90;;;;;;5113736;28;19936;-89
2022/03/26 06:04:41;;;;;;;;;;;6.00;99.90;;;;;;5113862;28;19993;-90
2022/03/26 06:07:08;;;;;;;;;;;6.60;99.90;;;;;;5113314;28;19954;-89
2022/03/26 06:09:35;;;;;;;;;;;5.70;99.90;;;;;;5114219;28;19977;-89
2022/03/26 06:12:02;;;;;;;;;;;6.50;99.90;;;;;;5114024;28;19985;-89
2022/03/26 06:14:29;;;;;;;;;;;6.20;99.90;;;;;;5113356;28;20385;-89
2022/03/26 06:16:55;;;;;;;;;;;6.20;99.90;;;;;;5115478;28;19924;-87
2022/03/26 06:19:22;;;;;;;;;;;6.10;99.90;;;;;;5117047;28;19975;-88
2022/03/26 06:21:50;;;;;;;;;;;6.10;99.90;;;;;;5117334;28;19969;-90
2022/03/26 06:24:17;;;;;;;;;;;6.10;99.90;;;;;;5117439;28;19931;-89
2022/03/26 06:26:45;;;;;;;;;;;6.20;99.90;;;;;;5117655;28;19969;-88
2022/03/26 06:29:12;;;;;;;;;;;6.10;99.90;;;;;;5117276;28;19927;-89
2022/03/26 06:31:39;;;;;;;;;;;3.90;99.90;;;;;;5117440;28;19973;-89
2022/03/26 06:34:05;;;;;;;;;;;6.20;99.90;;;;;;5116951;28;19924;-88
2022/03/26 06:36:33;;;;;;;;;;;6.30;99.90;;;;;;5117436;27;19927;-88
2022/03/26 06:39:01;;;;;;;;;;;6.70;99.90;;;;;;5116985;28;19927;-88
2022/03/26 06:41:28;;;;;;;;;;;6.20;99.90;;;;;;5117340;28;19924;-88
2022/03/26 06:43:55;;;;;;;;;;;6.30;99.90;;;;;;5117326;28;19924;-88
2022/03/26 06:46:25;;;;;;;;;;;6.60;99.90;;;;;;5116788;28;19923;-89
2022/03/26 06:48:52;;;;;;;;;;;6.40;99.90;;;;;;5116873;28;19924;-88
2022/03/26 06:51:19;;;;;;;;;;;6.40;99.90;;;;;;5117102;28;19977;-88
2022/03/26 06:53:46;;;;;;;;;;;6.60;99.90;;;;;;5116894;28;19928;-86
2022/03/26 06:56:14;;;;;;;;;;;6.50;99.90;;;;;;5116552;28;19949;-89
2022/03/26 06:58:41;;;;;;;;;;;6.60;99.90;;;;;;5116323;28;19923;-89
2022/03/26 07:01:08;;;;;;;;;;;6.60;99.90;;;;;;5116450;28;20423;-89
2022/03/26 07:03:35;;;;;;;;;;;6.70;99.90;;;;;;5116568;28;20001;-88
2022/03/26 07:06:02;;;;;;;;;;;6.70;99.90;;;;;;5116146;27;19924;-89
2022/03/26 07:08:29;;;;;;;;;;;6.90;99.90;;;;;;5118682;28;19927;-86
2022/03/26 07:10:56;;;;;;;;;;;6.70;99.90;;;;;;5126899;27;20303;-85
2022/03/26 07:13:24;;;;;;;;;;;7.10;99.90;;;;;;5126439;28;20378;-85
2022/03/26 07:15:51;;;;;;;;;;;7.00;99.90;;;;;;5127521;28;19931;-86
2022/03/26 07:18:18;;;;;;;;;;;7.10;99.90;;;;;;5124132;28;19923;-88
2022/03/26 07:20:44;;;;;;;;;;;7.10;99.90;;;;;;5118233;28;19926;-89
2022/03/26 07:23:11;;;;;;;;;;;6.60;99.90;;;;;;5116639;28;20266;-89
2022/03/26 07:25:38;;;;;;;;;;;7.00;99.90;;;;;;5116107;28;20004;-88
2022/03/26 07:28:07;;;;;;;;;;;7.80;99.90;;;;;;5116256;28;20286;-89
2022/03/26 07:30:35;;;;;;;;;;;8.50;99.90;;;;;;5117632;28;20377;-87
2022/03/26 07:33:02;;;;;;;;;;;7.40;99.90;;;;;;5115738;28;20304;-89
2022/03/26 07:35:30;;;;;;;;;;;7.60;99.90;;;;;;5116240;28;19924;-89
2022/03/26 07:37:56;;;;;;;;;;;7.70;99.90;;;;;;5115942;28;19931;-88
2022/03/26 07:40:23;;;;;;;;;;;7.60;99.90;;;;;;5116353;28;19927;-88
2022/03/26 07:42:50;;;;;;;;;;;7.70;99.90;;;;;;5115762;28;19936;-89
2022/03/26 07:45:17;;;;;;;;;;;7.70;99.90;;;;;;5114452;28;20029;-88
2022/03/26 07:47:45;;;;;;;;;;;8.30;99.90;;;;;;5115895;28;20380;-87
2022/03/26 07:50:12;;;;;;;;;;;8.00;99.90;;;;;;5115486;28;19979;-88
2022/03/26 07:52:41;;;;;;;;;;;7.80;99.90;;;;;;5115433;28;19924;-88
2022/03/26 07:55:08;;;;;;;;;;;8.10;99.90;;;;;;5115520;28;19934;-89
2022/03/26 07:57:35;;;;;;;;;;;8.50;99.90;;;;;;5115511;28;19963;-88
2022/03/26 08:00:01;;;;;;;;;;;8.40;99.90;;;;;;5115713;28;19972;-89
2022/03/26 08:02:28;;;;;;;;;;;8.50;99.90;;;;;;5114848;28;19931;-90
2022/03/26 08:04:56;;;;;;;;;;;8.90;99.90;;;;;;5115454;28;19924;-89
2022/03/26 08:07:23;;;;;;;;;;;8.40;99.90;;;;;;5115317;28;19996;-89
2022/03/26 08:09:51;;;;;;;;;;;8.60;99.90;;;;;;5115203;28;19923;-90
2022/03/26 08:12:18;;;;;;;;;;;8.70;99.90;;;;;;5115462;28;19930;-88
2022/03/26 08:14:45;;;;;;;;;;;8.70;99.90;;;;;;5115794;28;19924;-88
2022/03/26 08:17:12;;;;;;;;;;;9.10;99.90;;;;;;5115608;28;19947;-89
2022/03/26 08:19:39;;;;;;;;;;;9.10;99.90;;;;;;5115543;28;19924;-88
2022/03/26 08:22:07;;;;;;;;;;;8.40;99.90;;;;;;5115563;28;19923;-89
2022/03/26 08:24:34;;;;;;;;;;;9.30;99.90;;;;;;5115097;28;19928;-89
2022/03/26 08:27:00;;;;;;;;;;;9.40;99.90;;;;;;5115763;28;20296;-87
2022/03/26 08:29:28;;;;;;;;;;;9.60;99.90;;;;;;5115204;28;19980;-88
2022/03/26 08:31:55;;;;;;;;;;;9.40;99.90;;;;;;5115089;28;20002;-87
2022/03/26 08:34:22;;;;;;;;;;;9.50;99.90;;;;;;5114967;28;19976;-88
2022/03/26 08:36:48;;;;;;;;;;;9.80;99.90;;;;;;5114316;28;19924;-87
2022/03/26 08:39:17;;;;;;;;;;;9.90;99.90;;;;;;5114998;28;19925;-88
2022/03/26 08:41:45;;;;;;;;;;;9.70;99.90;;;;;;5114417;28;19931;-87
2022/03/26 08:44:12;;;;;;;;;;;10.50;99.90;;;;;;5115194;28;20055;-85
2022/03/26 08:46:39;;;;;;;;;;;10.00;99.90;;;;;;5115454;28;19923;-89
2022/03/26 08:49:06;;;;;;;;;;;10.10;99.90;;;;;;5115434;28;19988;-86
2022/03/26 08:51:35;;;;;;;;;;;10.00;99.90;;;;;;5114689;28;19924;-88
2022/03/26 08:54:03;;;;;;;;;;;10.50;99.90;;;;;;5117424;28;19930;-87
2022/03/26 08:56:31;;;;;;;;;;;10.70;99.90;;;;;;5115012;28;20023;-87
2022/03/26 08:59:00;;;;;;;;;;;10.70;99.90;;;;;;5114392;28;19928;-90
2022/03/26 09:01:29;;;;;;;;;;;10.90;99.90;;;;;;5116367;28;19932;-87
2022/03/26 09:03:56;;;;;;;;;;;10.90;99.90;;;;;;5114915;28;20370;-87
2022/03/26 09:06:23;;;;;;;;;;;11.70;99.90;;;;;;5114846;28;20373;-89
2022/03/26 09:08:50;;;;;;;;;;;11.00;99.90;;;;;;5114237;28;19924;-88
2022/03/26 09:11:17;;;;;;;;;;;11.10;99.90;;;;;;5114495;28;20368;-88
2022/03/26 09:13:46;;;;;;;;;;;11.20;99.90;;;;;;5114950;28;19960;-88
2022/03/26 09:16:13;;;;;;;;;;;11.40;99.90;;;;;;5113850;28;20400;-86
2022/03/26 09:18:40;;;;;;;;;;;11.30;99.90;;;;;;5116283;28;19924;-85
2022/03/26 09:21:07;;;;;;;;;;;11.50;99.90;;;;;;5116280;28;19989;-86
2022/03/26 09:23:34;;;;;;;;;;;10.30;99.90;;;;;;5117151;28;19930;-87
2022/03/26 09:26:04;;;;;;;;;;;11.70;99.90;;;;;;5130360;28;19928;-87
2022/03/26 09:28:30;;;;;;;;;;;12.00;99.90;;;;;;5133296;28;19927;-86
2022/03/26 09:31:00;;;;;;;;;;;12.10;99.90;;;;;;5134670;28;19924;-85
2022/03/26 09:33:29;;;;;;;;;;;12.20;99.90;;;;;;5128323;28;20372;-86
2022/03/26 09:35:56;;;;;;;;;;;12.30;99.90;;;;;;5115605;28;20370;-88
2022/03/26 09:38:23;;;;;;;;;;;12.50;99.90;;;;;;5115055;28;20381;-88
2022/03/26 09:40:50;;;;;;;;;;;12.70;99.90;;;;;;5115065;28;19924;-87
2022/03/26 09:43:18;;;;;;;;;;;12.70;99.90;;;;;;5114527;28;19935;-87
2022/03/26 09:45:45;;;;;;;;;;;13.00;99.90;;;;;;5116193;28;19927;-87
2022/03/26 09:48:15;;;;;;;;;;;13.10;99.90;;;;;;5117934;28;19949;-87
2022/03/26 09:50:45;;;;;;;;;;;12.80;99.90;;;;;;5116531;28;20022;-85
2022/03/26 09:53:24;;;;;;;;;;;13.40;99.90;;;;;;5118776;28;19928;-87
2022/03/26 09:55:52;;;;;;;;;;;13.70;99.90;;;;;;5119051;28;20129;-87
2022/03/26 09:58:19;;;;;;;;;;;16.10;99.90;;;;;;5119284;28;20279;-88
2022/03/26 10:00:47;;;;;;;;;;;15.20;99.90;;;;;;5118473;28;19924;-87
2022/03/26 10:03:18;;;;;;;;;;;13.80;99.90;;;;;;5119087;28;19930;-87
2022/03/26 10:05:46;;;;;;;;;;;13.80;99.90;;;;;;5119441;28;19950;-86
2022/03/26 10:08:17;;;;;;;;;;;14.20;99.90;;;;;;5118815;27;20018;-88
2022/03/26 10:10:45;;;;;;;;;;;14.10;99.70;;;;;;5118987;28;19924;-85
2022/03/26 10:13:14;;;;;;;;;;;14.20;99.70;;;;;;5117312;28;19963;-86
2022/03/26 10:15:56;;;;;;;;;;;14.40;98.80;;;;;;5118272;27;19930;-88
2022/03/26 10:18:25;;;;;;;;;;;14.50;98.40;;;;;;5118545;28;19928;-88
2022/03/26 10:20:57;;;;;;;;;;;14.40;98.40;;;;;;5117357;28;19924;-86
2022/03/26 10:23:27;;;;;;;;;;;14.60;98.10;;;;;;5117649;28;19977;-87
2022/03/26 10:26:04;;;;;;;;;;;14.80;98.00;;;;;;5117087;28;20346;-87
2022/03/26 10:28:32;;;;;;;;;;;14.80;98.10;;;;;;5118341;27;19923;-85
2022/03/26 10:34:02;;;;;;;;;;;14.90;98.00;;;;;;5116592;28;19930;-86
2022/03/26 10:36:34;;;;;;;;;;;14.90;98.80;;;;;;5116890;28;19923;-88
2022/03/26 10:39:01;;;;;;;;;;;14.90;98.80;;;;;;5117444;28;19985;-86
2022/03/26 10:41:31;;;;;;;;;;;14.30;98.20;;;;;;5117414;28;19976;-86
2022/03/26 10:44:06;;;;;;;;;;;15.10;98.30;;;;;;5117364;28;19931;-87
2022/03/26 10:46:41;;;;;;;;;;;15.40;97.40;;;;;;5118075;28;19928;-88
2022/03/26 10:49:10;;;;;;;;;;;12.60;97.90;;;;;;5119658;28;19985;-87
2022/03/26 10:51:37;;;;;;;;;;;15.20;97.50;;;;;;5117587;28;19995;-87
2022/03/26 10:54:09;;;;;;;;;;;15.30;97.60;;;;;;5116646;27;19923;-87
2022/03/26 10:56:36;;;;;;;;;;;15.20;97.40;;;;;;5118640;28;19928;-87
2022/03/26 10:59:03;;;;;;;;;;;15.80;97.40;;;;;;5117880;28;20079;-86
2022/03/26 11:01:32;;;;;;;;;;;15.50;97.20;;;;;;5116320;28;19930;-86
2022/03/26 11:04:04;;;;;;;;;;;15.50;97.80;;;;;;5120002;28;19931;-87
2022/03/26 11:06:37;;;;;;;;;;;16.00;97.50;;;;;;5123052;28;20026;-88
2022/03/26 11:09:08;;;;;;;;;;;15.70;96.70;;;;;;5119814;28;19974;-88
2022/03/26 11:11:37;;;;;;;;;;;16.10;96.70;;;;;;5119345;28;19934;-86
2022/03/26 11:14:06;;;;;;;;;;;16.10;95.90;;;;;;5116624;28;19968;-85
2022/03/26 11:16:48;;;;;;;;;;;15.90;95.90;;;;;;5116654;28;20030;-87
2022/03/26 11:19:19;;;;;;;;;;;16.00;95.30;;;;;;5118122;28;20370;-88
2022/03/26 11:22:04;;;;;;;;;;;16.20;95.00;;;;;;5117228;28;19927;-87
2022/03/26 11:24:59;;;;;;;;;;;16.40;94.30;;;;;;5118077;28;19956;-89
2022/03/26 11:27:35;;;;;;;;;;;16.70;94.70;;;;;;5118590;28;20022;-88
2022/03/26 11:30:04;;;;;;;;;;;16.40;95.10;;;;;;5117121;28;20020;-88
2022/03/26 11:32:33;;;;;;;;;;;16.60;94.70;;;;;;5118202;28;19989;-88
2022/03/26 11:35:01;;;;;;;;;;;16.90;94.30;;;;;;5102826;28;19928;-87
2022/03/26 11:37:31;;;;;;;;;;;16.80;94.30;;;;;;5104992;28;19924;-86
2022/03/26 11:39:58;;;;;;;;;;;16.80;94.10;;;;;;5106105;28;19928;-86
2022/03/26 11:42:25;;;;;;;;;;;16.70;93.50;;;;;;5100639;28;19924;-88
2022/03/26 11:53:10;;;;;;;;;;;16.60;91.20;;;;;;5094202;28;19969;-88
2022/03/26 11:55:44;;;;;;;;;;;17.40;91.10;;;;;;5095497;28;20052;-86
2022/03/26 11:58:14;;;;;;;;;;;16.90;90.50;;;;;;5100983;28;19924;-86
2022/03/26 12:00:53;;;;;;;;;;;17.40;90.60;;;;;;5095480;28;19925;-89
2022/03/26 12:03:21;;;;;;;;;;;17.40;90.70;;;;;;5095444;28;19924;-87
2022/03/26 12:08:39;;;;;;;;;;;18.20;91.30;;;;;;5096211;28;19973;-88
2022/03/26 12:11:06;;;;;;;;;;;17.60;90.60;;;;;;5097623;28;19927;-88
2022/03/26 12:13:35;;;;;;;;;;;18.00;90.60;;;;;;5096390;28;20430;-86
2022/03/26 12:16:03;;;;;;;;;;;19.10;89.70;;;;;;5095602;28;20254;-87
2022/03/26 12:18:34;;;;;;;;;;;18.50;90.70;;;;;;5098826;28;19924;-87
2022/03/26 12:21:08;;;;;;;;;;;17.60;89.60;;;;;;5101834;28;19931;-88
2022/03/26 12:23:41;;;;;;;;;;;18.20;88.70;;;;;;5097854;28;19999;-88
2022/03/26 12:26:09;;;;;;;;;;;17.90;89.90;;;;;;5098895;28;20018;-88
2022/03/26 12:28:39;;;;;;;;;;;18.30;91.00;;;;;;5097693;28;19956;-88
2022/03/26 12:31:07;;;;;;;;;;;18.10;90.40;;;;;;5098503;28;19929;-89
2022/03/26 12:33:40;;;;;;;;;;;18.40;90.70;;;;;;5101756;28;19927;-88
2022/03/26 12:36:09;;;;;;;;;;;18.50;88.70;;;;;;5118162;28;19927;-90
2022/03/26 12:38:36;;;;;;;;;;;18.70;88.20;;;;;;5116905;28;19924;-89
2022/03/26 12:41:06;;;;;;;;;;;18.60;89.50;;;;;;5115084;28;19931;-89
2022/03/26 12:43:33;;;;;;;;;;;18.70;89.00;;;;;;5116274;28;19923;-88
2022/03/26 12:46:02;;;;;;;;;;;18.80;88.20;;;;;;5116845;28;19946;-90
2022/03/26 12:48:29;;;;;;;;;;;18.80;89.20;;;;;;5116159;28;20019;-89
2022/03/26 12:51:00;;;;;;;;;;;19.00;88.90;;;;;;5115274;28;19923;-87
2022/03/26 12:53:40;;;;;;;;;;;18.80;88.40;;;;;;5115366;28;20006;-89
2022/03/26 12:56:11;;;;;;;;;;;19.00;89.10;;;;;;5117837;28;19928;-86
2022/03/26 13:01:22;;;;;;;;;;;18.90;89.10;;;;;;5115845;28;19930;-87
2022/03/26 13:03:49;;;;;;;;;;;18.90;88.50;;;;;;5115546;28;19967;-87
2022/03/26 13:06:17;;;;;;;;;;;19.10;89.60;;;;;;5120823;28;19930;-89
2022/03/26 13:08:53;;;;;;;;;;;18.80;90.00;;;;;;5118817;28;19930;-92
2022/03/26 13:11:25;;;;;;;;;;;18.40;88.40;;;;;;5116153;28;20270;-88
2022/03/26 13:13:52;;;;;;;;;;;19.20;88.50;;;;;;5115809;28;20277;-88
2022/03/26 13:16:22;;;;;;;;;;;19.10;88.40;;;;;;5117291;28;19928;-90
2022/03/26 13:18:51;;;;;;;;;;;18.90;88.80;;;;;;5116225;28;19935;-88
2022/03/26 13:21:19;;;;;;;;;;;18.80;89.70;;;;;;5117083;28;20437;-89
2022/03/26 13:23:53;;;;;;;;;;;18.90;89.30;;;;;;5115641;28;19931;-90
2022/03/26 13:26:21;;;;;;;;;;;18.90;88.70;;;;;;5118744;28;20010;-89
2022/03/26 13:28:49;;;;;;;;;;;18.90;88.90;;;;;;5119819;28;20002;-89
2022/03/26 13:31:18;;;;;;;;;;;19.70;90.50;;;;;;5120343;28;20035;-89
2022/03/26 13:33:45;;;;;;;;;;;19.10;87.80;;;;;;5112743;28;20442;-89
2022/03/26 13:36:12;;;;;;;;;;;18.00;88.30;;;;;;5099329;28;19924;-88
2022/03/26 13:38:40;;;;;;;;;;;19.80;90.00;;;;;;5098798;28;19985;-88
2022/03/26 13:41:13;;;;;;;;;;;19.40;89.80;;;;;;5105777;28;19942;-88
2022/03/26 13:43:42;;;;;;;;;;;19.70;88.10;;;;;;5104214;28;19928;-86
2022/03/26 13:46:08;;;;;;;;;;;19.20;88.10;;;;;;5103914;28;19928;-87
2022/03/26 13:48:47;;;;;;;;;;;19.00;89.70;;;;;;5102849;28;19924;-88
2022/03/26 13:51:14;;;;;;;;;;;19.40;88.70;;;;;;5098915;28;19924;-90
2022/03/26 13:53:42;;;;;;;;;;;19.40;90.90;;;;;;5099038;28;19969;-88
2022/03/26 13:56:10;;;;;;;;;;;19.90;90.30;;;;;;5102090;28;19924;-90
2022/03/26 13:58:37;;;;;;;;;;;19.40;87.90;;;;;;5102957;28;19987;-89
2022/03/26 14:01:07;;;;;;;;;;;19.50;89.90;;;;;;5101737;28;19925;-88
2022/03/26 14:03:37;;;;;;;;;;;19.10;88.20;;;;;;5099334;28;19924;-88
2022/03/26 14:06:04;;;;;;;;;;;19.00;88.00;;;;;;5099370;28;20434;-90
2022/03/26 14:08:31;;;;;;;;;;;19.00;89.70;;;;;;5100467;28;19928;-86
2022/03/26 14:10:58;;;;;;;;;;;17.60;89.30;;;;;;5100191;28;19932;-88
2022/03/26 14:13:25;;;;;;;;;;;19.00;88.10;;;;;;5099012;28;19932;-87
2022/03/26 14:15:52;;;;;;;;;;;19.00;89.50;;;;;;5098800;28;19931;-88
2022/03/26 14:18:21;;;;;;;;;;;19.00;89.60;;;;;;5100302;28;19979;-87
2022/03/26 14:20:48;;;;;;;;;;;19.00;87.30;;;;;;5099128;28;19927;-88
2022/03/26 14:23:15;;;;;;;;;;;18.90;87.20;;;;;;5098559;28;19977;-87
2022/03/26 14:25:44;;;;;;;;;;;18.90;86.80;;;;;;5098156;28;19931;-89
2022/03/26 14:28:14;;;;;;;;;;;19.00;87.60;;;;;;5098435;28;19982;-87
2022/03/26 14:30:41;;;;;;;;;;;19.60;86.90;;;;;;5101164;28;19924;-90
2022/03/26 14:33:11;;;;;;;;;;;19.20;86.50;;;;;;5098566;28;20360;-91
2022/03/26 14:35:39;;;;;;;;;;;19.40;86.50;;;;;;5098771;28;19924;-89
2022/03/26 14:38:07;;;;;;;;;;;19.30;85.30;;;;;;5100447;28;19928;-88
2022/03/26 14:40:35;;;;;;;;;;;19.30;86.00;;;;;;5098461;28;19969;-87
2022/03/26 14:43:08;;;;;;;;;;;19.40;85.90;;;;;;5100282;28;19931;-88
2022/03/26 14:45:35;;;;;;;;;;;19.40;87.00;;;;;;5098590;28;20364;-88